createdAt,value
2022-09-14T00:01:14.253Z,5.68
2022-09-14T00:03:40.861Z,4.85
2022-09-14T00:06:08.518Z,5.80
2022-09-14T00:08:35.808Z,6.10
2022-09-14T00:11:06.693Z,5.50
2022-09-14T00:13:34.084Z,4.85
2022-09-14T00:16:05.483Z,5.03
2022-09-14T00:18:33.035Z,4.78
2022-09-14T00:21:03.510Z,8.68
2022-09-14T00:23:30.626Z,4.75
2022-09-14T00:26:02.861Z,5.47
2022-09-14T00:28:29.974Z,5.15
2022-09-14T00:30:57.057Z,6.18
2022-09-14T00:33:24.168Z,4.50
2022-09-14T00:35:51.339Z,4.43
2022-09-14T00:38:18.439Z,4.20
2022-09-14T00:40:45.573Z,5.97
2022-09-14T00:43:16.061Z,5.03
2022-09-14T00:45:43.188Z,4.10
2022-09-14T00:48:10.365Z,5.88
2022-09-14T00:50:37.634Z,5.90
2022-09-14T00:53:05.187Z,4.63
2022-09-14T00:55:32.352Z,5.57
2022-09-14T00:57:59.538Z,4.32
2022-09-14T01:00:28.382Z,4.90
2022-09-14T01:02:55.569Z,5.80
2022-09-14T01:05:25.541Z,4.50
2022-09-14T01:08:05.628Z,4.15
2022-09-14T01:10:41.956Z,7.68
2022-09-14T01:13:26.287Z,6.28
2022-09-14T01:16:00.283Z,8.07
2022-09-14T01:18:27.789Z,5.50
2022-09-14T01:21:02.451Z,5.30
2022-09-14T01:23:29.555Z,5.30
2022-09-14T01:26:08.623Z,5.97
2022-09-14T01:28:35.704Z,5.60
2022-09-14T01:31:03.311Z,5.47
2022-09-14T01:33:32.166Z,5.22
2022-09-14T01:35:59.575Z,5.85
2022-09-14T01:38:34.129Z,7.80
2022-09-14T01:41:01.704Z,6.85
2022-09-14T01:43:37.275Z,7.30
2022-09-14T01:46:08.953Z,8.15
2022-09-14T01:48:47.233Z,6.78
2022-09-14T01:51:15.546Z,7.50
2022-09-14T01:53:44.753Z,7.60
2022-09-14T01:56:15.369Z,7.93
2022-09-14T01:58:54.765Z,9.80
2022-09-14T02:01:25.858Z,12.27
2022-09-14T02:03:55.349Z,7.90
2022-09-14T02:06:35.512Z,9.15
2022-09-14T02:09:02.971Z,8.23
2022-09-14T02:11:30.058Z,10.70
2022-09-14T02:13:57.335Z,11.07
2022-09-14T02:16:24.617Z,10.75
2022-09-14T02:18:51.825Z,11.95
2022-09-14T02:21:26.187Z,10.38
2022-09-14T02:23:53.282Z,10.18
2022-09-14T02:26:20.669Z,11.52
2022-09-14T02:28:47.861Z,15.23
2022-09-14T02:31:33.993Z,16.65
2022-09-14T02:34:04.092Z,16.35
2022-09-14T02:36:37.054Z,29.05
2022-09-14T02:39:16.618Z,36.90
2022-09-14T02:41:51.728Z,41.42
2022-09-14T02:44:21.582Z,49.05
2022-09-14T02:46:52.457Z,43.10
2022-09-14T02:49:38.361Z,44.35
2022-09-14T02:52:11.842Z,45.75
2022-09-14T02:54:44.387Z,57.92
2022-09-14T02:57:11.511Z,71.00
2022-09-14T02:59:38.632Z,77.93
2022-09-14T03:02:05.799Z,76.38
2022-09-14T03:04:32.967Z,71.28
2022-09-14T03:07:00.077Z,61.92
2022-09-14T03:09:27.207Z,48.00
2022-09-14T03:11:54.327Z,46.65
2022-09-14T03:14:21.475Z,41.92
2022-09-14T03:16:48.583Z,45.05
2022-09-14T03:19:15.706Z,29.13
2022-09-14T03:21:42.789Z,23.45
2022-09-14T03:24:11.178Z,15.18
2022-09-14T03:26:38.710Z,14.07
2022-09-14T03:29:06.071Z,14.55
2022-09-14T03:31:33.508Z,14.40
2022-09-14T03:34:01.117Z,16.05
2022-09-14T03:36:28.857Z,17.05
2022-09-14T03:38:56.606Z,11.43
2022-09-14T03:41:23.844Z,10.82
2022-09-14T03:43:51.260Z,18.65
2022-09-14T03:46:21.332Z,21.55
2022-09-14T03:48:48.609Z,16.75
2022-09-14T03:51:15.701Z,14.40
2022-09-14T03:53:42.985Z,13.73
2022-09-14T03:56:10.825Z,13.98
2022-09-14T03:58:38.234Z,10.75
2022-09-14T04:01:06.146Z,10.20
2022-09-14T04:03:33.265Z,10.75
2022-09-14T04:06:00.427Z,10.73
2022-09-14T04:08:27.555Z,9.23
2022-09-14T04:10:54.726Z,9.02
2022-09-14T04:13:21.831Z,8.52
2022-09-14T04:15:56.995Z,9.27
2022-09-14T04:18:24.228Z,9.90
2022-09-14T04:20:55.008Z,9.93
2022-09-14T04:23:22.803Z,10.20
2022-09-14T04:25:49.954Z,9.98
2022-09-14T04:28:20.579Z,11.38
2022-09-14T04:31:00.878Z,10.93
2022-09-14T04:33:30.520Z,11.90
2022-09-14T04:36:08.019Z,15.18
2022-09-14T04:38:35.429Z,11.27
2022-09-14T04:41:04.993Z,11.30
2022-09-14T04:43:32.098Z,12.15
2022-09-14T04:46:05.832Z,10.15
2022-09-14T04:48:36.046Z,10.55
2022-09-14T04:51:06.655Z,12.15
2022-09-14T04:53:34.108Z,13.27
2022-09-14T04:56:01.696Z,13.60
2022-09-14T04:58:29.042Z,12.57
2022-09-14T05:00:56.656Z,14.63
2022-09-14T05:03:23.775Z,12.93
2022-09-14T05:05:50.865Z,15.50
2022-09-14T05:08:17.974Z,15.68
2022-09-14T05:10:45.132Z,13.07
2022-09-14T05:13:14.666Z,13.63
2022-09-14T05:15:42.643Z,14.20
2022-09-14T05:18:09.815Z,14.52
2022-09-14T05:20:39.077Z,17.95
2022-09-14T05:23:06.299Z,14.95
2022-09-14T05:25:33.425Z,16.20
2022-09-14T05:28:00.543Z,16.05
2022-09-14T05:30:27.747Z,15.93
2022-09-14T05:32:57.970Z,19.33
2022-09-14T05:35:25.313Z,13.23
2022-09-14T05:37:52.449Z,14.13
2022-09-14T05:40:19.607Z,14.88
2022-09-14T05:42:46.806Z,11.93
2022-09-14T05:45:13.927Z,10.20
2022-09-14T05:47:41.035Z,13.60
2022-09-14T05:50:08.822Z,10.98
2022-09-14T05:52:35.971Z,9.20
2022-09-14T05:55:03.122Z,9.00
2022-09-14T05:57:30.234Z,6.65
2022-09-14T05:59:57.319Z,7.47
2022-09-14T06:02:24.491Z,5.85
2022-09-14T06:04:51.729Z,7.78
2022-09-14T06:07:19.220Z,8.48
2022-09-14T06:09:46.407Z,22.30
2022-09-14T06:12:14.622Z,30.38
2022-09-14T06:14:41.782Z,29.98
2022-09-14T06:17:08.899Z,27.73
2022-09-14T06:19:36.006Z,26.85
2022-09-14T06:22:03.094Z,27.55
2022-09-14T06:24:30.855Z,26.70
2022-09-14T06:26:57.966Z,22.73
2022-09-14T06:29:25.106Z,21.30
2022-09-14T06:31:52.247Z,20.38
2022-09-14T06:34:19.469Z,23.83
2022-09-14T06:36:46.880Z,23.27
2022-09-14T06:39:14.055Z,28.17
2022-09-14T06:41:41.148Z,17.95
2022-09-14T06:44:08.252Z,16.83
2022-09-14T06:46:35.605Z,13.88
2022-09-14T06:49:02.787Z,10.23
2022-09-14T06:51:29.877Z,10.80
2022-09-14T06:54:00.112Z,13.23
2022-09-14T06:56:27.858Z,10.32
2022-09-14T06:58:55.019Z,9.43
2022-09-14T07:01:22.424Z,8.77
2022-09-14T07:03:52.266Z,8.60
2022-09-14T07:06:21.022Z,7.68
2022-09-14T07:08:48.379Z,5.32
2022-09-14T07:11:17.172Z,3.78
2022-09-14T07:13:44.587Z,3.17
2022-09-14T07:16:12.246Z,3.53
2022-09-14T07:18:39.659Z,3.42
2022-09-14T07:21:06.810Z,3.10
2022-09-14T07:23:34.250Z,3.35
2022-09-14T07:26:20.385Z,2.92
2022-09-14T07:28:48.581Z,5.07
2022-09-14T07:31:19.691Z,3.28
2022-09-14T07:33:46.897Z,3.13
2022-09-14T07:36:14.608Z,2.92
2022-09-14T07:38:52.089Z,2.90
2022-09-14T07:41:29.054Z,4.80
2022-09-14T07:43:57.458Z,4.22
2022-09-14T07:46:24.710Z,3.13
2022-09-14T07:48:55.627Z,3.55
2022-09-14T07:51:23.301Z,3.03
2022-09-14T07:53:50.493Z,3.85
2022-09-14T07:56:17.720Z,5.45
2022-09-14T07:58:45.039Z,3.40
2022-09-14T08:01:15.693Z,3.30
2022-09-14T08:03:43.553Z,4.15
2022-09-14T08:06:14.451Z,3.72
2022-09-14T08:08:42.775Z,4.00
2022-09-14T08:11:14.061Z,3.38
2022-09-14T08:13:44.964Z,4.20
2022-09-14T08:16:12.255Z,3.30
2022-09-14T08:18:39.420Z,3.05
2022-09-14T08:21:07.214Z,3.28
2022-09-14T08:23:34.638Z,2.75
2022-09-14T08:26:08.825Z,2.88
2022-09-14T08:28:36.400Z,37.83
2022-09-14T08:31:04.400Z,5.28
2022-09-14T08:33:32.071Z,2.72
2022-09-14T08:35:59.447Z,2.40
2022-09-14T08:38:26.557Z,2.63
2022-09-14T08:40:53.838Z,2.70
2022-09-14T08:43:21.256Z,2.28
2022-09-14T08:45:48.432Z,2.75
2022-09-14T08:48:18.319Z,2.90
2022-09-14T08:50:45.415Z,2.50
2022-09-14T08:53:12.578Z,2.35
2022-09-14T08:55:41.876Z,2.85
2022-09-14T08:58:15.846Z,2.83
2022-09-14T09:00:51.026Z,2.72
2022-09-14T09:03:21.243Z,4.30
2022-09-14T09:06:16.082Z,3.22
2022-09-14T09:08:49.855Z,3.63
2022-09-14T09:11:20.608Z,3.20
2022-09-14T09:13:47.725Z,3.50
2022-09-14T09:16:16.362Z,3.50
2022-09-14T09:18:46.907Z,3.65
2022-09-14T09:21:17.017Z,3.03
2022-09-14T09:23:44.107Z,5.20
2022-09-14T09:26:13.842Z,3.17
2022-09-14T09:28:51.173Z,66.63
2022-09-14T09:31:19.133Z,3.22
2022-09-14T09:33:49.717Z,3.97
2022-09-14T09:36:16.889Z,5.03
2022-09-14T09:38:44.059Z,3.92
2022-09-14T09:41:18.273Z,4.45
2022-09-14T09:43:57.556Z,4.40
2022-09-14T09:46:24.772Z,3.45
2022-09-14T09:48:51.908Z,3.00
2022-09-14T09:51:26.745Z,4.65
2022-09-14T09:53:53.830Z,3.50
2022-09-14T09:56:25.319Z,3.25
2022-09-14T09:58:52.501Z,3.75
2022-09-14T10:01:23.703Z,2.97
2022-09-14T10:04:04.222Z,2.95
2022-09-14T10:06:31.329Z,3.13
2022-09-14T10:08:58.632Z,2.85
2022-09-14T10:11:38.340Z,2.13
2022-09-14T10:14:05.931Z,2.75
2022-09-14T10:16:34.820Z,3.38
2022-09-14T10:19:03.370Z,3.22
2022-09-14T10:21:31.362Z,2.22
2022-09-14T10:24:24.798Z,2.58
2022-09-14T10:26:51.911Z,2.42
2022-09-14T10:29:35.442Z,2.40
2022-09-14T10:32:15.831Z,3.08
2022-09-14T10:34:42.961Z,3.80
2022-09-14T10:37:33.414Z,2.70
2022-09-14T10:40:17.342Z,3.92
2022-09-14T10:42:50.449Z,2.83
2022-09-14T10:45:17.566Z,2.97
2022-09-14T10:47:50.091Z,2.83
2022-09-14T10:50:20.462Z,3.10
2022-09-14T10:53:10.202Z,3.10
2022-09-14T10:55:40.053Z,3.10
2022-09-14T10:58:26.002Z,2.88
2022-09-14T11:01:02.256Z,3.50
2022-09-14T11:03:29.399Z,3.10
2022-09-14T11:06:13.015Z,3.28
2022-09-14T11:08:43.152Z,2.70
2022-09-14T11:11:29.182Z,2.85
2022-09-14T11:14:05.438Z,3.72
2022-09-14T11:16:50.642Z,3.88
2022-09-14T11:19:20.662Z,3.47
2022-09-14T11:21:57.449Z,3.00
2022-09-14T11:24:24.530Z,5.80
2022-09-14T11:27:12.516Z,6.30
2022-09-14T11:29:41.460Z,3.75
2022-09-14T11:32:20.843Z,3.78
2022-09-14T11:34:54.744Z,3.35
2022-09-14T11:37:22.559Z,3.55
2022-09-14T11:39:50.903Z,3.38
2022-09-14T11:42:25.667Z,4.07
2022-09-14T11:45:00.370Z,6.82
2022-09-14T11:47:27.504Z,5.68
2022-09-14T11:49:56.315Z,5.28
2022-09-14T11:52:24.317Z,5.68
2022-09-14T11:54:52.030Z,5.50
2022-09-14T11:57:24.060Z,2.85
2022-09-14T11:59:55.056Z,2.92
2022-09-14T12:02:28.262Z,2.85
2022-09-14T12:05:07.341Z,2.53
2022-09-14T12:07:43.461Z,3.90
2022-09-14T12:10:16.684Z,2.55
2022-09-14T12:12:47.327Z,5.78
2022-09-14T12:15:17.556Z,2.40
2022-09-14T12:17:45.306Z,2.72
2022-09-14T12:20:31.360Z,2.40
2022-09-14T12:23:14.876Z,2.65
2022-09-14T12:25:53.331Z,2.10
2022-09-14T12:28:28.061Z,1.95
2022-09-14T12:30:55.289Z,2.25
2022-09-14T12:33:31.711Z,2.05
2022-09-14T12:36:02.452Z,2.25
2022-09-14T12:38:32.426Z,2.65
2022-09-14T12:41:11.530Z,2.17
2022-09-14T12:43:38.637Z,2.20
2022-09-14T12:46:08.855Z,1.88
2022-09-14T12:48:48.409Z,1.80
2022-09-14T12:51:18.617Z,1.80
2022-09-14T12:53:45.744Z,2.03
2022-09-14T12:56:18.239Z,2.40
2022-09-14T12:59:00.697Z,2.10
2022-09-14T13:01:35.993Z,1.92
2022-09-14T13:04:03.351Z,2.22
2022-09-14T13:06:35.546Z,1.80
2022-09-14T13:09:06.245Z,2.30
2022-09-14T13:11:39.644Z,2.90
2022-09-14T13:14:06.764Z,2.40
2022-09-14T13:16:41.158Z,2.95
2022-09-14T13:19:19.367Z,3.25
2022-09-14T13:21:47.847Z,3.95
2022-09-14T13:24:41.323Z,3.58
2022-09-14T13:27:08.463Z,3.60
2022-09-14T13:29:35.838Z,4.10
2022-09-14T13:32:04.132Z,3.95
2022-09-14T13:34:32.389Z,3.00
2022-09-14T13:36:59.867Z,4.32
2022-09-14T13:39:27.077Z,4.13
2022-09-14T13:41:54.651Z,6.53
2022-09-14T13:44:49.798Z,4.40
2022-09-14T13:47:17.852Z,6.32
2022-09-14T13:49:45.218Z,4.45
2022-09-14T13:52:34.329Z,7.50
2022-09-14T13:55:13.524Z,6.05
2022-09-14T13:57:40.634Z,38.15
2022-09-14T14:00:14.148Z,6.78
2022-09-14T14:02:46.107Z,5.82
2022-09-14T14:05:25.533Z,3.75
2022-09-14T14:07:52.691Z,4.15
2022-09-14T14:10:28.382Z,3.88
2022-09-14T14:12:55.537Z,3.28
2022-09-14T14:15:25.515Z,3.53
2022-09-14T14:17:52.602Z,4.13
2022-09-14T14:20:38.389Z,3.50
2022-09-14T14:23:05.497Z,3.50
2022-09-14T14:25:41.010Z,4.72
2022-09-14T14:28:30.447Z,3.97
2022-09-14T14:30:57.924Z,7.70
2022-09-14T14:33:25.157Z,7.30
2022-09-14T14:35:53.482Z,5.40
2022-09-14T14:38:22.444Z,7.25
2022-09-14T14:40:49.632Z,5.90
2022-09-14T14:43:18.867Z,7.10
2022-09-14T14:45:46.137Z,6.35
2022-09-14T14:48:13.269Z,18.25
2022-09-14T14:50:40.402Z,21.73
2022-09-14T14:53:07.778Z,29.13
2022-09-14T14:55:37.494Z,13.07
2022-09-14T14:58:07.306Z,26.38
2022-09-14T15:00:35.164Z,9.75
2022-09-14T15:03:02.376Z,12.80
2022-09-14T15:05:29.570Z,9.95
2022-09-14T15:07:56.727Z,7.68
2022-09-14T15:10:24.334Z,8.27
2022-09-14T15:12:52.416Z,7.78
2022-09-14T15:15:20.802Z,6.15
2022-09-14T15:17:47.976Z,6.85
2022-09-14T15:20:15.460Z,4.75
2022-09-14T15:22:42.764Z,5.75
2022-09-14T15:25:10.328Z,4.75
2022-09-14T15:27:37.693Z,145.35
2022-09-14T15:30:05.201Z,6.00
2022-09-14T15:32:32.305Z,3.92
2022-09-14T15:34:59.445Z,5.05
2022-09-14T15:37:26.621Z,3.97
2022-09-14T15:39:53.840Z,3.50
2022-09-14T15:42:21.121Z,3.45
2022-09-14T15:44:48.241Z,3.80
2022-09-14T15:47:15.534Z,3.75
2022-09-14T15:49:42.714Z,3.70
2022-09-14T15:52:10.148Z,4.32
2022-09-14T15:54:37.718Z,5.30
2022-09-14T15:57:06.264Z,3.55
2022-09-14T15:59:33.479Z,3.70
2022-09-14T16:02:00.707Z,3.60
2022-09-14T16:04:27.902Z,5.45
2022-09-14T16:06:55.062Z,3.63
2022-09-14T16:09:22.600Z,6.53
2022-09-14T16:11:49.776Z,5.03
2022-09-14T16:14:16.936Z,4.22
2022-09-14T16:16:44.109Z,3.50
2022-09-14T16:19:14.759Z,3.60
2022-09-14T16:21:42.219Z,3.35
2022-09-14T16:24:14.239Z,4.13
2022-09-14T16:26:41.506Z,4.00
2022-09-14T16:29:08.759Z,4.20
2022-09-14T16:31:36.705Z,4.22
2022-09-14T16:34:05.010Z,4.57
2022-09-14T16:36:32.873Z,4.57
2022-09-14T16:39:01.036Z,5.95
2022-09-14T16:41:28.261Z,5.75
2022-09-14T16:43:58.824Z,6.88
2022-09-14T16:46:26.441Z,5.13
2022-09-14T16:48:53.697Z,4.97
2022-09-14T16:51:21.649Z,4.95
2022-09-14T16:53:49.023Z,5.70
2022-09-14T16:56:17.299Z,8.00
2022-09-14T16:58:44.651Z,6.03
2022-09-14T17:01:18.995Z,5.82
2022-09-14T17:03:46.975Z,5.57
2022-09-14T17:06:15.053Z,4.65
2022-09-14T17:08:44.027Z,7.03
2022-09-14T17:11:11.676Z,14.93
2022-09-14T17:13:38.768Z,16.38
2022-09-14T17:16:07.209Z,27.88
2022-09-14T17:18:34.626Z,24.27
2022-09-14T17:21:03.051Z,17.30
2022-09-14T17:23:30.219Z,19.48
2022-09-14T17:25:57.405Z,12.55
2022-09-14T17:28:25.751Z,9.55
2022-09-14T17:30:56.541Z,9.85
2022-09-14T17:33:23.894Z,24.15
2022-09-14T17:35:52.371Z,13.32
2022-09-14T17:38:19.941Z,12.85
2022-09-14T17:40:47.182Z,15.32
2022-09-14T17:43:14.567Z,13.68
2022-09-14T17:45:42.509Z,11.40
2022-09-14T17:48:11.051Z,15.95
2022-09-14T17:50:39.573Z,11.18
2022-09-14T17:53:06.715Z,10.65
2022-09-14T17:55:33.890Z,11.40
2022-09-14T17:58:00.991Z,17.17
2022-09-14T18:00:28.244Z,20.02
2022-09-14T18:02:55.424Z,14.68
2022-09-14T18:05:22.566Z,18.42
2022-09-14T18:07:49.820Z,20.15
2022-09-14T18:10:17.779Z,27.55
2022-09-14T18:12:45.412Z,16.17
2022-09-14T18:15:15.426Z,13.95
2022-09-14T18:17:43.150Z,8.70
2022-09-14T18:20:10.624Z,8.05
2022-09-14T18:22:38.007Z,6.32
2022-09-14T18:25:05.949Z,8.48
2022-09-14T18:27:33.271Z,8.80
2022-09-14T18:30:01.149Z,10.13
2022-09-14T18:32:28.291Z,31.27
2022-09-14T18:34:55.462Z,19.50
2022-09-14T18:37:23.501Z,62.95
2022-09-14T18:39:50.664Z,50.47
2022-09-14T18:42:17.789Z,34.30
2022-09-14T18:44:45.379Z,22.98
2022-09-14T18:47:13.476Z,18.50
2022-09-14T18:49:40.606Z,16.48
2022-09-14T18:52:07.723Z,18.65
2022-09-14T18:54:34.903Z,14.65
2022-09-14T18:57:02.185Z,19.67
2022-09-14T18:59:29.721Z,19.92
2022-09-14T19:01:58.204Z,11.68
2022-09-14T19:04:25.666Z,12.85
2022-09-14T19:06:53.088Z,14.35
2022-09-14T19:09:20.217Z,16.98
2022-09-14T19:11:47.458Z,14.63
2022-09-14T19:14:15.440Z,18.98
2022-09-14T19:16:42.708Z,20.92
2022-09-14T19:19:10.162Z,16.63
2022-09-14T19:21:37.372Z,12.30
2022-09-14T19:24:07.858Z,12.77
2022-09-14T19:26:43.953Z,14.27
2022-09-14T19:29:12.216Z,18.83
2022-09-14T19:31:39.413Z,27.80
2022-09-14T19:34:06.864Z,32.65
2022-09-14T19:36:36.955Z,30.38
2022-09-14T19:39:04.354Z,30.33
2022-09-14T19:41:32.947Z,28.23
2022-09-14T19:44:00.461Z,29.45
2022-09-14T19:46:27.711Z,32.95
2022-09-14T19:48:55.035Z,45.67
2022-09-14T19:51:23.294Z,32.35
2022-09-14T19:53:51.013Z,28.02
2022-09-14T19:56:19.289Z,32.97
2022-09-14T19:58:50.045Z,27.98
2022-09-14T20:01:18.414Z,26.70
2022-09-14T20:03:45.653Z,27.13
2022-09-14T20:06:19.226Z,18.23
2022-09-14T20:08:46.710Z,28.35
2022-09-14T20:11:19.100Z,29.38
2022-09-14T20:13:48.505Z,33.58
2022-09-14T20:16:19.811Z,27.05
2022-09-14T20:18:47.316Z,35.25
2022-09-14T20:21:15.382Z,28.95
2022-09-14T20:24:04.427Z,24.83
2022-09-14T20:26:29.860Z,26.55
2022-09-14T20:28:57.369Z,28.10
2022-09-14T20:31:24.589Z,33.67
2022-09-14T20:33:52.049Z,32.80
2022-09-14T20:36:19.833Z,51.15
2022-09-14T20:38:50.323Z,39.17
2022-09-14T20:41:18.033Z,34.53
2022-09-14T20:43:49.119Z,31.13
2022-09-14T20:46:17.749Z,56.08
2022-09-14T20:48:44.941Z,37.65
2022-09-14T20:51:12.108Z,41.15
2022-09-14T20:53:39.745Z,27.98
2022-09-14T20:56:07.984Z,30.27
2022-09-14T20:58:35.131Z,33.05
2022-09-14T21:01:12.755Z,29.73
2022-09-14T21:03:42.995Z,30.40
2022-09-14T21:06:11.780Z,31.27
2022-09-14T21:08:39.247Z,26.02
2022-09-14T21:11:07.239Z,20.88
2022-09-14T21:13:34.647Z,19.25
2022-09-14T21:16:08.935Z,21.40
2022-09-14T21:18:36.199Z,19.02
2022-09-14T21:21:07.103Z,22.13
2022-09-14T21:23:34.400Z,21.40
2022-09-14T21:26:01.485Z,18.83
2022-09-14T21:28:29.140Z,20.40
2022-09-14T21:31:06.331Z,16.17
2022-09-14T21:33:34.135Z,13.90
2022-09-14T21:36:05.023Z,19.35
2022-09-14T21:38:32.186Z,20.27
2022-09-14T21:40:59.459Z,11.07
2022-09-14T21:43:26.594Z,14.57
2022-09-14T21:45:54.165Z,15.30
2022-09-14T21:48:21.323Z,15.27
2022-09-14T21:50:48.497Z,13.80
2022-09-14T21:53:15.655Z,13.60
2022-09-14T21:55:42.870Z,13.82
2022-09-14T21:58:09.988Z,14.38
2022-09-14T22:00:37.310Z,12.27
2022-09-14T22:03:04.558Z,12.45
2022-09-14T22:05:31.752Z,11.57
2022-09-14T22:07:58.982Z,15.93
2022-09-14T22:10:26.925Z,15.23
2022-09-14T22:12:54.296Z,13.55
2022-09-14T22:15:21.475Z,13.55
2022-09-14T22:17:48.946Z,15.20
2022-09-14T22:20:16.716Z,14.13
2022-09-14T22:22:44.534Z,14.63
2022-09-14T22:25:11.665Z,14.02
2022-09-14T22:27:40.073Z,12.70
2022-09-14T22:30:07.546Z,11.15
2022-09-14T22:32:34.639Z,61.72
2022-09-14T22:35:01.736Z,54.70
2022-09-14T22:37:28.866Z,36.83
2022-09-14T22:39:55.995Z,37.25
2022-09-14T22:42:23.932Z,38.80
2022-09-14T22:44:51.060Z,25.38
2022-09-14T22:47:18.166Z,35.10
2022-09-14T22:49:45.506Z,33.22
2022-09-14T22:52:13.119Z,26.88
2022-09-14T22:54:40.207Z,21.98
2022-09-14T22:57:07.365Z,19.85
2022-09-14T22:59:34.469Z,19.63
2022-09-14T23:02:01.631Z,23.05
2022-09-14T23:04:28.836Z,17.55
2022-09-14T23:06:55.982Z,25.85
2022-09-14T23:09:23.180Z,22.98
2022-09-14T23:11:50.908Z,19.70
2022-09-14T23:14:18.104Z,23.13
2022-09-14T23:16:45.686Z,23.00
2022-09-14T23:19:14.598Z,23.58
2022-09-14T23:21:41.778Z,25.67
2022-09-14T23:24:08.884Z,26.05
2022-09-14T23:26:36.004Z,23.60
2022-09-14T23:29:04.707Z,28.90
2022-09-14T23:31:32.275Z,25.58
2022-09-14T23:33:59.902Z,30.25
2022-09-14T23:36:27.357Z,22.00
2022-09-14T23:38:54.473Z,18.58
2022-09-14T23:41:22.035Z,19.08
2022-09-14T23:43:49.220Z,19.23
2022-09-14T23:46:19.282Z,19.27
2022-09-14T23:48:46.442Z,18.63
2022-09-14T23:51:13.746Z,15.85
2022-09-14T23:53:41.026Z,16.67
2022-09-14T23:56:08.364Z,16.08
2022-09-14T23:58:35.681Z,17.17
